createdAt,value
2023-04-19T00:01:23.772Z,6.80
2023-04-19T00:03:53.018Z,5.80
2023-04-19T00:06:22.191Z,6.17
2023-04-19T00:08:52.792Z,6.30
2023-04-19T00:11:21.721Z,4.83
2023-04-19T00:13:51.396Z,5.97
2023-04-19T00:16:20.290Z,4.93
2023-04-19T00:18:49.470Z,5.10
2023-04-19T00:21:18.569Z,6.13
2023-04-19T00:23:49.977Z,5.77
2023-04-19T00:26:20.416Z,6.90
2023-04-19T00:28:49.945Z,6.00
2023-04-19T00:31:19.299Z,5.43
2023-04-19T00:33:51.089Z,6.23
2023-04-19T00:36:20.351Z,6.03
2023-04-19T00:38:49.745Z,4.90
2023-04-19T00:41:21.934Z,5.93
2023-04-19T00:43:51.090Z,5.40
2023-04-19T00:46:27.307Z,5.07
2023-04-19T00:48:58.234Z,5.90
2023-04-19T00:51:27.713Z,4.37
2023-04-19T00:53:56.798Z,5.57
2023-04-19T00:56:29.185Z,5.03
2023-04-19T00:58:58.924Z,4.10
2023-04-19T01:01:29.736Z,4.50
2023-04-19T01:04:02.680Z,6.90
2023-04-19T01:06:33.391Z,6.40
2023-04-19T01:09:02.420Z,5.87
2023-04-19T01:11:34.113Z,5.30
2023-04-19T01:14:03.461Z,6.23
2023-04-19T01:16:33.742Z,6.10
2023-04-19T01:19:05.614Z,5.97
2023-04-19T01:21:35.033Z,7.33
2023-04-19T01:24:05.781Z,6.27
2023-04-19T01:26:35.456Z,6.40
2023-04-19T01:29:05.361Z,5.50
2023-04-19T01:31:34.467Z,5.30
2023-04-19T01:34:03.480Z,6.73
2023-04-19T01:36:32.671Z,4.00
2023-04-19T01:39:01.662Z,6.40
2023-04-19T01:41:32.842Z,5.60
2023-04-19T01:44:08.205Z,5.40
2023-04-19T01:46:40.189Z,4.87
2023-04-19T01:49:11.205Z,4.80
2023-04-19T01:51:40.860Z,6.57
2023-04-19T01:54:10.079Z,4.97
2023-04-19T01:56:40.709Z,4.33
2023-04-19T01:59:10.171Z,6.40
2023-04-19T02:01:39.260Z,6.63
2023-04-19T02:04:09.402Z,5.00
2023-04-19T02:06:38.599Z,5.23
2023-04-19T02:09:08.511Z,7.10
2023-04-19T02:11:37.966Z,4.57
2023-04-19T02:14:09.383Z,5.17
2023-04-19T02:16:38.613Z,5.10
2023-04-19T02:19:07.697Z,4.80
2023-04-19T02:21:36.773Z,5.53
2023-04-19T02:24:05.938Z,4.37
2023-04-19T02:26:35.504Z,4.00
2023-04-19T02:29:06.368Z,4.37
2023-04-19T02:31:38.516Z,6.07
2023-04-19T02:34:07.694Z,4.43
2023-04-19T02:36:41.806Z,5.87
2023-04-19T02:39:10.885Z,5.17
2023-04-19T02:41:39.800Z,4.47
2023-04-19T02:44:09.531Z,4.20
2023-04-19T02:46:40.118Z,3.97
2023-04-19T02:49:10.390Z,5.47
2023-04-19T02:51:39.648Z,3.67
2023-04-19T02:54:08.750Z,3.93
2023-04-19T02:56:38.131Z,3.67
2023-04-19T02:59:07.294Z,4.73
2023-04-19T03:01:37.600Z,4.00
2023-04-19T03:04:08.298Z,4.40
2023-04-19T03:06:38.006Z,4.00
2023-04-19T03:09:08.221Z,4.80
2023-04-19T03:11:38.938Z,5.10
2023-04-19T03:14:07.858Z,4.50
2023-04-19T03:16:38.101Z,4.70
2023-04-19T03:19:09.028Z,3.57
2023-04-19T03:21:38.521Z,3.63
2023-04-19T03:24:07.651Z,7.53
2023-04-19T03:26:37.164Z,3.03
2023-04-19T03:29:05.898Z,4.13
2023-04-19T03:31:35.246Z,3.83
2023-04-19T03:34:04.243Z,3.40
2023-04-19T03:36:34.736Z,2.60
2023-04-19T03:39:05.286Z,3.30
2023-04-19T03:41:34.326Z,3.27
2023-04-19T03:44:04.158Z,3.43
2023-04-19T03:46:45.787Z,3.17
2023-04-19T03:49:17.705Z,3.37
2023-04-19T03:51:48.358Z,2.40
2023-04-19T03:54:31.268Z,3.87
2023-04-19T03:57:03.756Z,3.20
2023-04-19T03:59:33.070Z,3.63
2023-04-19T04:02:02.716Z,3.67
2023-04-19T04:04:31.923Z,3.17
2023-04-19T04:07:02.984Z,2.90
2023-04-19T04:09:32.283Z,2.00
2023-04-19T04:12:03.299Z,2.50
2023-04-19T04:14:32.551Z,2.07
2023-04-19T04:17:02.058Z,2.10
2023-04-19T04:19:31.109Z,2.73
2023-04-19T04:22:00.375Z,3.60
2023-04-19T04:24:33.307Z,2.57
2023-04-19T04:27:03.452Z,2.67
2023-04-19T04:29:35.144Z,2.77
2023-04-19T04:32:04.184Z,3.60
2023-04-19T04:34:33.304Z,3.47
2023-04-19T04:37:02.454Z,2.50
2023-04-19T04:39:39.310Z,2.40
2023-04-19T04:42:09.808Z,4.00
2023-04-19T04:44:39.157Z,3.40
2023-04-19T04:47:08.832Z,2.43
2023-04-19T04:49:38.056Z,3.23
2023-04-19T04:52:08.877Z,2.87
2023-04-19T04:54:39.257Z,2.73
2023-04-19T04:57:08.411Z,1.80
2023-04-19T04:59:37.602Z,2.47
2023-04-19T05:02:06.606Z,2.73
2023-04-19T05:04:35.643Z,2.93
2023-04-19T05:07:05.047Z,3.00
2023-04-19T05:09:34.014Z,3.33
2023-04-19T05:12:04.539Z,3.20
2023-04-19T05:14:33.625Z,2.53
2023-04-19T05:17:05.781Z,2.77
2023-04-19T05:19:35.925Z,3.70
2023-04-19T05:22:05.157Z,2.60
2023-04-19T05:24:36.894Z,3.47
2023-04-19T05:27:07.485Z,2.33
2023-04-19T05:29:36.679Z,2.47
2023-04-19T05:32:05.578Z,3.03
2023-04-19T05:34:34.728Z,2.57
2023-04-19T05:37:05.065Z,3.90
2023-04-19T05:39:34.522Z,3.13
2023-04-19T05:42:03.463Z,4.37
2023-04-19T05:44:34.362Z,3.87
2023-04-19T05:47:03.238Z,3.23
2023-04-19T05:49:34.832Z,2.23
2023-04-19T05:52:04.319Z,3.70
2023-04-19T05:54:36.297Z,2.50
2023-04-19T05:57:05.638Z,3.00
2023-04-19T05:59:37.279Z,2.60
2023-04-19T06:02:22.323Z,3.23
2023-04-19T06:04:51.541Z,2.67
2023-04-19T06:07:31.734Z,2.67
2023-04-19T06:10:03.730Z,2.50
2023-04-19T06:12:34.288Z,2.60
2023-04-19T06:15:07.039Z,1.83
2023-04-19T06:17:36.480Z,2.57
2023-04-19T06:20:08.552Z,3.03
2023-04-19T06:22:38.228Z,2.00
2023-04-19T06:25:08.079Z,3.60
2023-04-19T06:27:38.680Z,3.23
2023-04-19T06:30:11.952Z,1.80
2023-04-19T06:32:42.620Z,1.77
2023-04-19T06:35:12.840Z,2.13
2023-04-19T06:37:42.584Z,3.03
2023-04-19T06:40:12.689Z,1.93
2023-04-19T06:42:42.484Z,1.70
2023-04-19T06:45:15.593Z,2.13
2023-04-19T06:47:45.532Z,2.97
2023-04-19T06:50:15.179Z,1.87
2023-04-19T06:52:44.862Z,3.00
2023-04-19T06:55:14.115Z,2.30
2023-04-19T06:57:46.526Z,2.97
2023-04-19T07:00:18.518Z,2.13
2023-04-19T07:02:48.239Z,2.57
2023-04-19T07:05:17.366Z,1.80
2023-04-19T07:07:47.185Z,2.27
2023-04-19T07:10:18.534Z,1.83
2023-04-19T07:12:48.076Z,2.20
2023-04-19T07:15:19.936Z,1.70
2023-04-19T07:17:49.364Z,1.40
2023-04-19T07:20:18.932Z,2.00
2023-04-19T07:22:50.969Z,2.63
2023-04-19T07:25:20.308Z,2.20
2023-04-19T07:27:50.064Z,1.97
2023-04-19T07:30:24.788Z,1.87
2023-04-19T07:32:54.270Z,2.00
2023-04-19T07:35:24.048Z,1.63
2023-04-19T07:37:54.800Z,2.20
2023-04-19T07:40:25.675Z,1.63
2023-04-19T07:42:57.932Z,2.03
2023-04-19T07:45:34.196Z,1.33
2023-04-19T07:48:03.964Z,1.83
2023-04-19T07:50:34.982Z,1.77
2023-04-19T07:53:06.171Z,1.30
2023-04-19T07:55:36.487Z,2.10
2023-04-19T07:58:08.119Z,1.87
2023-04-19T08:00:39.388Z,2.13
2023-04-19T08:03:18.647Z,2.30
2023-04-19T08:06:02.157Z,0.97
2023-04-19T08:08:34.083Z,2.13
2023-04-19T08:11:09.772Z,1.80
2023-04-19T08:13:42.168Z,1.50
2023-04-19T08:16:32.310Z,1.87
2023-04-19T08:19:12.263Z,2.07
2023-04-19T08:21:48.302Z,2.00
2023-04-19T08:24:18.541Z,1.87
2023-04-19T08:26:54.492Z,1.43
2023-04-19T08:29:41.993Z,1.77
2023-04-19T08:32:15.333Z,1.30
2023-04-19T08:34:48.955Z,1.87
2023-04-19T08:37:18.833Z,2.00
2023-04-19T08:39:48.983Z,1.37
2023-04-19T08:42:35.596Z,2.37
2023-04-19T08:48:00.647Z,1.53
2023-04-19T08:50:38.717Z,2.13
2023-04-19T08:53:24.744Z,1.90
2023-04-19T09:01:12.934Z,1.37
2023-04-19T09:04:02.592Z,2.07
2023-04-19T09:06:48.397Z,1.23
2023-04-19T09:09:35.565Z,1.40
2023-04-19T09:12:23.351Z,1.23
2023-04-19T09:15:01.700Z,1.60
2023-04-19T09:17:35.100Z,1.37
2023-04-19T09:20:11.854Z,1.33
2023-04-19T09:23:03.308Z,0.90
2023-04-19T09:26:05.973Z,1.77
2023-04-19T09:28:29.477Z,0.80
2023-04-19T09:31:15.320Z,0.83
2023-04-19T09:33:55.407Z,1.77
2023-04-19T09:37:00.700Z,0.87
2023-04-19T09:39:42.752Z,1.50
2023-04-19T09:42:14.617Z,1.17
2023-04-19T09:45:20.907Z,1.00
2023-04-19T09:47:55.425Z,0.90
2023-04-19T09:53:02.523Z,0.97
2023-04-19T09:55:39.163Z,1.03
2023-04-19T09:58:17.550Z,0.97
2023-04-19T10:01:10.438Z,1.33
2023-04-19T10:03:46.267Z,1.23
2023-04-19T10:06:45.609Z,1.17
2023-04-19T10:09:29.517Z,1.30
2023-04-19T10:12:45.531Z,0.87
2023-04-19T10:15:17.751Z,0.93
2023-04-19T10:17:49.351Z,2.03
2023-04-19T10:20:47.611Z,1.90
2023-04-19T10:23:28.028Z,0.97
2023-04-19T10:26:00.993Z,1.57
2023-04-19T10:28:37.104Z,1.57
2023-04-19T10:31:07.628Z,1.70
2023-04-19T10:33:43.076Z,1.67
2023-04-19T10:36:19.048Z,1.07
2023-04-19T10:38:50.073Z,1.40
2023-04-19T10:41:22.675Z,1.10
2023-04-19T10:44:12.596Z,1.10
2023-04-19T10:46:44.863Z,1.70
2023-04-19T10:49:18.884Z,1.20
2023-04-19T10:51:55.196Z,1.07
2023-04-19T10:54:32.298Z,1.30
2023-04-19T10:57:13.663Z,0.90
2023-04-19T10:59:49.326Z,1.33
2023-04-19T11:02:41.620Z,1.80
2023-04-19T11:05:15.570Z,1.00
2023-04-19T11:07:54.626Z,1.00
2023-04-19T11:10:35.165Z,0.83
2023-04-19T11:13:13.976Z,1.10
2023-04-19T11:15:48.611Z,1.37
2023-04-19T11:18:25.666Z,1.03
2023-04-19T11:21:08.002Z,0.90
2023-04-19T11:23:38.938Z,1.43
2023-04-19T11:26:09.172Z,1.83
2023-04-19T11:28:49.228Z,0.90
2023-04-19T11:31:21.274Z,1.40
2023-04-19T11:33:53.941Z,1.10
2023-04-19T11:36:30.600Z,1.37
2023-04-19T11:39:04.111Z,1.43
2023-04-19T11:41:51.061Z,2.40
2023-04-19T11:44:24.827Z,1.07
2023-04-19T11:47:01.444Z,1.83
2023-04-19T11:49:33.471Z,1.07
2023-04-19T11:52:18.586Z,1.83
2023-04-19T11:54:49.106Z,3.30
2023-04-19T11:57:32.770Z,1.57
2023-04-19T12:00:20.808Z,1.90
2023-04-19T12:03:03.580Z,1.57
2023-04-19T12:05:37.206Z,1.20
2023-04-19T12:08:17.450Z,1.20
2023-04-19T12:11:07.212Z,1.50
2023-04-19T12:13:45.885Z,2.13
2023-04-19T12:16:39.293Z,1.23
2023-04-19T12:19:18.534Z,1.87
2023-04-19T12:21:53.054Z,1.50
2023-04-19T12:24:25.605Z,1.33
2023-04-19T12:27:04.646Z,3.70
2023-04-19T12:29:46.372Z,1.40
2023-04-19T12:32:29.831Z,1.27
2023-04-19T12:35:03.433Z,1.23
2023-04-19T12:37:44.973Z,1.30
2023-04-19T12:40:24.013Z,2.40
2023-04-19T12:43:00.506Z,1.47
2023-04-19T12:45:30.104Z,0.97
2023-04-19T12:48:02.634Z,1.50
2023-04-19T12:50:34.748Z,1.07
2023-04-19T12:53:07.654Z,1.00
2023-04-19T12:55:48.105Z,1.50
2023-04-19T12:58:23.953Z,1.80
2023-04-19T13:00:56.426Z,1.03
2023-04-19T13:03:34.552Z,1.83
2023-04-19T13:06:07.780Z,1.10
2023-04-19T13:08:45.362Z,1.30
2023-04-19T13:11:18.347Z,1.87
2023-04-19T13:13:50.272Z,1.13
2023-04-19T13:16:26.821Z,1.63
2023-04-19T13:18:58.284Z,1.77
2023-04-19T13:21:32.476Z,1.70
2023-04-19T13:24:06.285Z,2.20
2023-04-19T13:26:36.418Z,1.83
2023-04-19T13:29:09.461Z,1.50
2023-04-19T13:31:39.174Z,1.43
2023-04-19T13:34:11.402Z,2.23
2023-04-19T13:36:41.328Z,2.07
2023-04-19T13:39:17.670Z,2.70
2023-04-19T13:41:48.224Z,2.23
2023-04-19T13:44:21.176Z,1.10
2023-04-19T13:46:52.630Z,1.50
2023-04-19T13:49:28.220Z,2.10
2023-04-19T13:52:10.813Z,3.07
2023-04-19T13:54:45.847Z,1.60
2023-04-19T14:00:14.760Z,1.70
2023-04-19T14:02:45.431Z,1.90
2023-04-19T14:05:19.657Z,1.40
2023-04-19T14:07:50.893Z,1.80
2023-04-19T14:10:23.545Z,1.60
2023-04-19T14:12:57.746Z,1.23
2023-04-19T14:15:35.198Z,1.77
2023-04-19T14:18:07.991Z,2.03
2023-04-19T14:20:38.873Z,1.57
2023-04-19T14:23:09.560Z,1.90
2023-04-19T14:25:38.894Z,1.73
2023-04-19T14:28:08.542Z,1.43
2023-04-19T14:30:40.896Z,1.23
2023-04-19T14:33:13.203Z,1.33
2023-04-19T14:35:44.346Z,2.50
2023-04-19T14:38:14.807Z,1.97
2023-04-19T14:40:44.875Z,2.30
2023-04-19T14:43:20.459Z,2.20
2023-04-19T14:46:02.280Z,1.03
2023-04-19T14:48:45.929Z,1.60
2023-04-19T14:51:18.152Z,1.27
2023-04-19T14:53:51.462Z,1.13
2023-04-19T14:56:21.392Z,0.90
2023-04-19T14:58:51.096Z,1.03
2023-04-19T15:01:26.989Z,1.33
2023-04-19T15:04:10.775Z,1.23
2023-04-19T15:06:53.868Z,1.23
2023-04-19T15:09:34.294Z,2.03
2023-04-19T15:12:14.847Z,2.20
2023-04-19T15:14:44.864Z,1.83
2023-04-19T15:17:18.816Z,1.27
2023-04-19T15:19:52.897Z,1.47
2023-04-19T15:22:26.900Z,0.90
2023-04-19T15:24:56.594Z,1.50
2023-04-19T15:27:30.522Z,1.60
2023-04-19T15:30:02.240Z,1.47
2023-04-19T15:32:46.533Z,1.60
2023-04-19T15:35:16.167Z,1.23
2023-04-19T15:37:46.869Z,1.53
2023-04-19T15:40:17.449Z,1.20
2023-04-19T15:42:48.725Z,1.10
2023-04-19T15:45:17.876Z,2.00
2023-04-19T15:47:48.983Z,1.53
2023-04-19T15:50:18.403Z,1.00
2023-04-19T15:52:49.120Z,1.23
2023-04-19T15:55:19.968Z,1.10
2023-04-19T15:57:51.328Z,1.70
2023-04-19T16:00:21.380Z,0.80
2023-04-19T16:03:03.272Z,1.40
2023-04-19T16:05:34.056Z,1.77
2023-04-19T16:08:05.687Z,1.40
2023-04-19T16:10:36.754Z,0.97
2023-04-19T16:13:14.153Z,0.93
2023-04-19T16:15:45.645Z,1.80
2023-04-19T16:18:18.670Z,0.57
2023-04-19T16:20:52.815Z,1.23
2023-04-19T16:23:24.265Z,1.50
2023-04-19T16:25:56.658Z,1.33
2023-04-19T16:28:29.471Z,1.10
2023-04-19T16:31:02.114Z,1.40
2023-04-19T16:33:35.578Z,1.13
2023-04-19T16:36:06.229Z,1.17
2023-04-19T16:38:35.488Z,1.17
2023-04-19T16:41:11.707Z,1.43
2023-04-19T16:43:47.380Z,1.30
2023-04-19T16:46:36.203Z,1.13
2023-04-19T16:49:12.705Z,0.97
2023-04-19T16:51:50.332Z,2.00
2023-04-19T16:54:22.079Z,1.27
2023-04-19T16:56:52.246Z,1.13
2023-04-19T16:59:25.667Z,1.30
2023-04-19T17:01:59.657Z,1.30
2023-04-19T17:04:33.382Z,1.50
2023-04-19T17:07:04.311Z,0.90
2023-04-19T17:09:34.369Z,0.60
2023-04-19T17:12:03.950Z,0.93
2023-04-19T17:14:34.160Z,0.90
2023-04-19T17:17:05.340Z,1.20
2023-04-19T17:19:36.945Z,1.20
2023-04-19T17:22:07.629Z,1.63
2023-04-19T17:24:37.666Z,1.57
2023-04-19T17:27:09.506Z,1.20
2023-04-19T17:29:39.885Z,2.80
2023-04-19T17:32:09.685Z,1.97
2023-04-19T17:34:42.984Z,1.60
2023-04-19T17:37:12.609Z,1.47
2023-04-19T17:39:43.026Z,1.70
2023-04-19T17:42:12.167Z,1.00
2023-04-19T17:44:41.417Z,0.90
2023-04-19T17:47:13.300Z,1.00
2023-04-19T17:49:50.167Z,1.00
2023-04-19T17:52:20.819Z,1.10
2023-04-19T17:54:54.050Z,1.27
2023-04-19T17:57:30.060Z,2.17
2023-04-19T18:00:06.699Z,1.07
2023-04-19T18:02:38.943Z,1.13
2023-04-19T18:05:16.971Z,1.80
2023-04-19T18:07:46.584Z,1.00
2023-04-19T18:10:19.777Z,1.47
2023-04-19T18:12:49.150Z,1.63
2023-04-19T18:15:20.230Z,1.97
2023-04-19T18:17:56.256Z,1.60
2023-04-19T18:20:29.202Z,2.57
2023-04-19T18:23:01.020Z,1.77
2023-04-19T18:25:35.819Z,1.73
2023-04-19T18:28:10.766Z,1.40
2023-04-19T18:33:50.294Z,1.13
2023-04-19T18:36:26.666Z,1.63
2023-04-19T18:38:59.204Z,2.27
2023-04-19T18:41:30.923Z,2.10
2023-04-19T18:44:39.134Z,1.10
2023-04-19T18:47:08.280Z,2.60
2023-04-19T18:49:42.524Z,2.10
2023-04-19T18:52:41.323Z,2.17
2023-04-19T18:55:12.580Z,1.83
2023-04-19T18:57:47.740Z,2.57
2023-04-19T19:00:33.700Z,2.77
2023-04-19T19:03:12.157Z,1.77
2023-04-19T19:05:55.104Z,2.03
2023-04-19T19:08:33.895Z,1.60
2023-04-19T19:13:40.343Z,2.07
2023-04-19T19:16:11.152Z,2.10
2023-04-19T19:18:43.414Z,1.13
2023-04-19T19:21:13.977Z,2.30
2023-04-19T19:26:32.298Z,2.23
2023-04-19T19:29:02.896Z,2.20
2023-04-19T19:31:34.606Z,2.30
2023-04-19T19:34:24.118Z,2.20
2023-04-19T19:39:48.522Z,1.10
2023-04-19T19:51:58.201Z,1.90
2023-04-19T19:58:42.580Z,2.17
2023-04-19T20:04:18.387Z,1.50
2023-04-19T20:10:10.446Z,1.70
2023-04-19T20:13:20.942Z,1.43
2023-04-19T20:19:11.782Z,1.83
2023-04-19T20:21:46.105Z,1.10
2023-04-19T20:24:15.887Z,1.83
2023-04-19T20:26:59.512Z,2.13
2023-04-19T20:29:32.739Z,2.20
2023-04-19T20:32:14.187Z,2.07
2023-04-19T20:34:50.392Z,1.00
2023-04-19T20:46:12.897Z,1.87
2023-04-19T20:48:42.424Z,2.20
2023-04-19T20:51:28.142Z,2.70
2023-04-19T20:54:03.216Z,2.33
2023-04-19T20:56:53.786Z,3.03
2023-04-19T20:59:38.122Z,1.53
2023-04-19T21:02:13.259Z,1.40
2023-04-19T21:04:54.335Z,3.00
2023-04-19T21:07:26.642Z,2.00
2023-04-19T21:10:03.296Z,1.10
2023-04-19T21:12:33.180Z,1.00
2023-04-19T21:15:05.846Z,1.47
2023-04-19T21:17:45.917Z,1.80
2023-04-19T21:20:19.216Z,1.23
2023-04-19T21:22:59.240Z,1.97
2023-04-19T21:25:52.781Z,1.40
2023-04-19T21:28:38.098Z,1.07
2023-04-19T21:31:16.168Z,1.13
2023-04-19T21:33:48.965Z,2.50
2023-04-19T21:36:25.356Z,1.40
2023-04-19T21:38:59.588Z,1.27
2023-04-19T21:41:37.175Z,0.80
2023-04-19T21:44:16.337Z,1.67
2023-04-19T21:46:48.576Z,2.50
2023-04-19T21:49:22.271Z,1.57
2023-04-19T21:51:54.835Z,1.53
2023-04-19T21:54:34.920Z,1.40
2023-04-19T21:57:07.521Z,1.30
2023-04-19T21:59:40.983Z,1.50
2023-04-19T22:02:39.781Z,1.87
2023-04-19T22:05:29.526Z,2.30
2023-04-19T22:07:59.426Z,1.57
2023-04-19T22:13:31.108Z,1.83
2023-04-19T22:16:03.577Z,2.17
2023-04-19T22:21:53.725Z,1.30
2023-04-19T22:24:56.994Z,2.10
2023-04-19T22:27:49.715Z,1.33
2023-04-19T22:30:39.422Z,0.73
2023-04-19T22:36:20.659Z,1.70
2023-04-19T22:42:22.050Z,2.27
2023-04-19T22:48:23.094Z,1.40
2023-04-19T22:53:48.426Z,1.07
2023-04-19T22:56:20.877Z,1.30
2023-04-19T22:59:07.020Z,1.20
2023-04-19T23:01:38.690Z,0.93
2023-04-19T23:04:16.185Z,1.30
2023-04-19T23:06:56.409Z,1.40
2023-04-19T23:09:26.358Z,2.07
2023-04-19T23:12:02.166Z,1.27
2023-04-19T23:14:32.269Z,1.10
2023-04-19T23:17:03.332Z,0.80
2023-04-19T23:22:41.235Z,1.20
2023-04-19T23:25:13.850Z,1.53
2023-04-19T23:27:44.766Z,1.83
2023-04-19T23:30:14.588Z,2.20
2023-04-19T23:32:44.427Z,1.53
2023-04-19T23:35:16.948Z,1.47
2023-04-19T23:37:47.846Z,2.30
2023-04-19T23:40:16.891Z,2.40
2023-04-19T23:42:48.990Z,1.70
2023-04-19T23:45:17.888Z,1.63
2023-04-19T23:47:47.379Z,1.57
2023-04-19T23:50:17.901Z,1.40
2023-04-19T23:52:48.470Z,1.20
2023-04-19T23:55:18.200Z,1.43
2023-04-19T23:57:47.341Z,1.40
